createdAt,value
2022-09-06T00:04:04.406Z,21.55
2022-09-06T00:06:46.438Z,21.53
2022-09-06T00:09:19.825Z,21.52
2022-09-06T00:11:53.404Z,21.49
2022-09-06T00:14:26.720Z,21.46
2022-09-06T00:17:00.423Z,21.44
2022-09-06T00:30:14.381Z,21.27
2022-09-06T00:32:47.824Z,21.24
2022-09-06T00:35:22.076Z,21.22
2022-09-06T00:38:00.201Z,21.19
2022-09-06T00:40:46.923Z,21.16
2022-09-06T00:57:25.337Z,21.07
2022-09-06T01:00:07.429Z,21.08
2022-09-06T01:02:41.557Z,21.06
2022-09-06T01:05:18.376Z,21.06
2022-09-06T01:08:05.755Z,21.03
2022-09-06T01:11:25.441Z,21.02
2022-09-06T01:25:19.441Z,20.90
2022-09-06T01:28:25.328Z,20.87
2022-09-06T01:31:24.482Z,20.86
2022-09-06T01:34:27.058Z,20.83
2022-09-06T01:37:15.629Z,20.80
2022-09-06T01:50:58.370Z,20.70
2022-09-06T01:53:56.840Z,20.67
2022-09-06T01:56:51.415Z,20.63
2022-09-06T01:59:45.605Z,20.64
2022-09-06T02:02:39.479Z,20.58
2022-09-06T02:16:00.420Z,20.48
2022-09-06T02:18:41.230Z,20.45
2022-09-06T02:21:29.432Z,20.44
2022-09-06T02:24:10.165Z,20.43
2022-09-06T02:26:53.435Z,20.41
2022-09-06T02:29:26.904Z,20.40
2022-09-06T02:32:11.453Z,20.40
2022-09-06T02:42:26.360Z,20.30
2022-09-06T02:45:06.616Z,20.26
2022-09-06T02:47:41.745Z,20.26
2022-09-06T02:50:15.469Z,20.26
2022-09-06T02:53:02.248Z,20.28
2022-09-06T02:55:43.416Z,20.25
2022-09-06T03:09:11.384Z,20.18
2022-09-06T03:11:44.732Z,20.18
2022-09-06T03:14:18.397Z,20.17
2022-09-06T03:16:51.737Z,20.15
2022-09-06T03:19:25.537Z,20.14
2022-09-06T03:22:01.888Z,20.09
2022-09-06T03:38:24.474Z,20.01
2022-09-06T03:41:13.356Z,19.99
2022-09-06T03:43:53.956Z,19.97
2022-09-06T03:46:27.671Z,19.95
2022-09-06T03:49:07.058Z,19.93
2022-09-06T03:51:40.779Z,19.92
2022-09-06T04:04:31.359Z,19.86
2022-09-06T04:07:11.370Z,19.85
2022-09-06T04:09:44.673Z,19.84
2022-09-06T04:12:18.406Z,19.79
2022-09-06T04:14:51.842Z,19.73
2022-09-06T04:17:25.408Z,19.70
2022-09-06T04:30:37.398Z,19.57
2022-09-06T04:33:11.022Z,19.56
2022-09-06T04:35:44.429Z,19.56
2022-09-06T04:38:17.657Z,19.53
2022-09-06T04:40:51.412Z,19.49
2022-09-06T04:57:28.369Z,19.49
2022-09-06T05:00:08.411Z,19.45
2022-09-06T05:02:41.902Z,19.45
2022-09-06T05:05:15.361Z,19.45
2022-09-06T05:07:51.567Z,19.47
2022-09-06T05:10:25.481Z,19.45
2022-09-06T05:13:00.776Z,19.49
2022-09-06T05:22:59.394Z,19.56
2022-09-06T05:25:32.701Z,19.57
2022-09-06T05:28:08.403Z,19.61
2022-09-06T05:30:42.496Z,19.65
2022-09-06T05:33:17.412Z,19.65
2022-09-06T05:35:50.866Z,19.68
2022-09-06T05:51:42.504Z,19.64
2022-09-06T05:54:15.707Z,19.66
2022-09-06T05:56:50.345Z,19.65
2022-09-06T05:59:23.751Z,19.63
2022-09-06T06:01:59.396Z,19.60
2022-09-06T06:18:36.357Z,19.64
2022-09-06T06:21:19.381Z,19.66
2022-09-06T06:23:56.856Z,19.64
2022-09-06T06:26:39.406Z,19.66
2022-09-06T06:29:12.760Z,19.65
2022-09-06T06:31:46.481Z,19.69
2022-09-06T06:44:42.403Z,19.72
2022-09-06T06:47:15.681Z,19.73
2022-09-06T06:49:49.396Z,19.74
2022-09-06T06:52:22.736Z,19.77
2022-09-06T06:54:56.952Z,19.76
2022-09-06T06:57:30.853Z,19.83
2022-09-06T07:10:36.791Z,19.99
2022-09-06T07:13:17.382Z,20.03
2022-09-06T07:15:50.882Z,20.06
2022-09-06T07:18:25.372Z,20.08
2022-09-06T07:37:41.406Z,20.27
2022-09-06T07:40:14.917Z,20.28
2022-09-06T07:42:48.394Z,20.31
2022-09-06T07:45:21.751Z,20.32
2022-09-06T07:48:00.371Z,20.34
2022-09-06T07:50:49.768Z,20.37
2022-09-06T08:03:47.365Z,20.57
2022-09-06T08:06:28.423Z,20.59
2022-09-06T08:09:10.639Z,20.64
2022-09-06T08:11:51.382Z,20.67
2022-09-06T08:14:24.792Z,20.71
2022-09-06T08:16:58.388Z,20.75
2022-09-06T08:30:16.405Z,21.04
2022-09-06T08:32:49.657Z,21.13
2022-09-06T08:35:23.420Z,21.22
2022-09-06T08:37:57.949Z,21.30
2022-09-06T08:40:31.448Z,21.31
2022-09-06T08:43:13.012Z,21.35
2022-09-06T08:46:02.443Z,21.41
2022-09-06T08:59:18.463Z,21.66
2022-09-06T09:02:09.673Z,21.72
2022-09-06T09:04:57.803Z,21.77
2022-09-06T09:07:45.188Z,21.85
2022-09-06T09:10:36.464Z,21.90
2022-09-06T09:23:50.451Z,22.22
2022-09-06T09:26:28.375Z,22.29
2022-09-06T09:29:18.465Z,22.34
2022-09-06T09:31:54.927Z,22.34
2022-09-06T09:34:38.435Z,22.40
2022-09-06T09:50:38.386Z,22.59
2022-09-06T09:53:23.447Z,22.60
2022-09-06T09:55:59.032Z,22.67
2022-09-06T09:58:41.415Z,22.73
2022-09-06T10:01:25.425Z,22.80
2022-09-06T10:07:16.706Z,22.99
2022-09-06T10:17:14.417Z,23.27
2022-09-06T10:19:48.378Z,23.31
2022-09-06T10:22:35.463Z,23.33
2022-09-06T10:25:38.855Z,23.38
2022-09-06T10:28:37.477Z,23.39
2022-09-06T10:31:50.775Z,23.41
2022-09-06T10:45:09.415Z,23.43
2022-09-06T10:48:04.475Z,23.46
2022-09-06T10:50:51.375Z,23.46
2022-09-06T10:53:54.457Z,23.46
2022-09-06T10:56:38.596Z,23.47
2022-09-06T11:13:10.595Z,23.51
2022-09-06T11:15:51.967Z,23.51
2022-09-06T11:18:43.522Z,23.52
2022-09-06T11:21:52.354Z,23.52
2022-09-06T11:24:56.642Z,23.52
2022-09-06T11:27:37.828Z,23.54
2022-09-06T11:37:37.447Z,23.66
2022-09-06T11:43:23.526Z,23.73
2022-09-06T11:45:58.070Z,23.77
2022-09-06T11:48:56.514Z,23.80
2022-09-06T11:51:36.736Z,23.83
2022-09-06T12:05:24.394Z,23.98
2022-09-06T12:08:39.415Z,24.01
2022-09-06T12:11:33.566Z,24.01
2022-09-06T12:14:34.136Z,24.00
2022-09-06T12:17:25.695Z,24.01
2022-09-06T12:31:01.514Z,24.10
2022-09-06T12:33:43.487Z,24.12
2022-09-06T12:36:19.856Z,24.13
2022-09-06T12:39:06.455Z,24.10
2022-09-06T12:41:45.787Z,24.10
2022-09-06T12:44:37.475Z,24.10
2022-09-06T12:47:28.048Z,24.11
2022-09-06T13:00:24.375Z,24.23
2022-09-06T13:03:22.454Z,24.25
2022-09-06T13:06:03.035Z,24.34
2022-09-06T13:08:50.458Z,24.41
2022-09-06T13:11:29.835Z,24.50
2022-09-06T13:24:51.397Z,25.21
2022-09-06T13:27:42.468Z,25.29
2022-09-06T13:30:33.443Z,25.29
2022-09-06T13:33:28.406Z,25.30
2022-09-06T13:36:22.414Z,25.28
2022-09-06T13:52:44.518Z,25.10
2022-09-06T13:55:24.523Z,25.08
2022-09-06T13:58:04.415Z,25.04
2022-09-06T14:00:39.287Z,24.97
2022-09-06T14:03:13.456Z,24.89
2022-09-06T14:05:46.955Z,24.84
2022-09-06T14:08:22.438Z,24.78
2022-09-06T14:18:14.661Z,24.50
2022-09-06T14:21:00.442Z,24.41
2022-09-06T14:23:35.935Z,24.36
2022-09-06T14:26:11.476Z,24.29
2022-09-06T14:28:45.599Z,24.23
2022-09-06T14:31:21.609Z,24.17
2022-09-06T14:44:52.443Z,23.91
2022-09-06T14:47:25.955Z,23.89
2022-09-06T14:49:59.483Z,23.87
2022-09-06T14:52:33.175Z,23.85
2022-09-06T14:55:07.444Z,23.80
2022-09-06T14:57:41.178Z,23.77
2022-09-06T15:13:56.458Z,23.53
2022-09-06T15:16:30.997Z,23.50
2022-09-06T15:19:06.303Z,23.48
2022-09-06T15:21:40.836Z,23.46
2022-09-06T15:24:15.487Z,23.43
2022-09-06T15:26:49.816Z,23.42
2022-09-06T15:39:40.443Z,23.23
2022-09-06T15:42:20.415Z,23.19
2022-09-06T15:44:53.961Z,23.17
2022-09-06T15:47:27.476Z,23.14
2022-09-06T15:50:01.047Z,23.12
2022-09-06T15:52:35.436Z,23.11
2022-09-06T16:08:41.095Z,23.02
2022-09-06T16:11:17.490Z,23.00
2022-09-06T16:13:51.399Z,22.98
2022-09-06T16:16:25.515Z,22.95
2022-09-06T16:33:02.390Z,22.75
2022-09-06T16:35:45.464Z,22.72
2022-09-06T16:38:18.996Z,22.65
2022-09-06T16:40:53.447Z,22.60
2022-09-06T16:43:27.788Z,22.57
2022-09-06T16:46:06.550Z,22.54
2022-09-06T16:59:20.435Z,22.42
2022-09-06T17:01:54.127Z,22.38
2022-09-06T17:04:28.440Z,22.36
2022-09-06T17:07:02.207Z,22.33
2022-09-06T17:09:36.469Z,22.35
2022-09-06T17:12:09.987Z,22.34
2022-09-06T17:27:50.375Z,22.35
2022-09-06T17:30:23.996Z,22.32
2022-09-06T17:32:57.475Z,22.31
2022-09-06T17:35:31.087Z,22.29
2022-09-06T17:38:04.428Z,22.26
2022-09-06T17:40:38.487Z,22.22
2022-09-06T17:43:19.407Z,22.20
2022-09-06T17:53:04.380Z,22.12
2022-09-06T17:55:46.538Z,22.10
2022-09-06T17:58:22.255Z,22.09
2022-09-06T18:00:56.511Z,22.06
2022-09-06T18:03:30.875Z,22.05
2022-09-06T18:06:10.456Z,22.03
2022-09-06T18:19:23.455Z,21.96
2022-09-06T18:21:56.927Z,21.96
2022-09-06T18:24:30.463Z,21.95
2022-09-06T18:27:04.428Z,21.92
2022-09-06T18:29:40.217Z,21.92
2022-09-06T18:32:14.215Z,21.91
2022-09-06T18:45:39.442Z,21.84
2022-09-06T18:48:20.476Z,21.80
2022-09-06T18:50:57.957Z,21.76
2022-09-06T18:53:44.544Z,21.75
2022-09-06T18:56:19.982Z,21.74
2022-09-06T18:58:53.443Z,21.73
2022-09-06T19:01:30.500Z,21.71
2022-09-06T19:14:26.398Z,21.62
2022-09-06T19:17:08.435Z,21.61
2022-09-06T19:19:42.455Z,21.61
2022-09-06T19:22:16.440Z,21.60
2022-09-06T19:24:49.968Z,21.57
2022-09-06T19:27:23.437Z,21.55
2022-09-06T19:40:36.495Z,21.49
2022-09-06T19:43:09.908Z,21.47
2022-09-06T19:45:44.475Z,21.44
2022-09-06T19:48:17.959Z,21.45
2022-09-06T19:50:51.528Z,21.42
2022-09-06T19:53:25.328Z,21.42
2022-09-06T20:06:16.426Z,21.31
2022-09-06T20:08:59.430Z,21.21
2022-09-06T20:11:35.295Z,21.22
2022-09-06T20:14:09.512Z,21.19
2022-09-06T20:16:43.098Z,21.19
2022-09-06T20:19:18.487Z,21.18
2022-09-06T20:21:53.936Z,21.16
2022-09-06T20:34:42.401Z,21.10
2022-09-06T20:37:25.621Z,21.09
2022-09-06T20:39:58.832Z,21.03
2022-09-06T20:42:33.228Z,21.03
2022-09-06T20:45:08.207Z,21.02
2022-09-06T20:47:41.432Z,21.03
2022-09-06T21:00:53.450Z,20.91
2022-09-06T21:03:27.436Z,20.90
2022-09-06T21:06:01.485Z,20.88
2022-09-06T21:08:40.693Z,20.85
2022-09-06T21:11:23.425Z,20.83
2022-09-06T21:28:00.369Z,20.72
2022-09-06T21:30:40.439Z,20.72
2022-09-06T21:33:14.862Z,20.70
2022-09-06T21:35:48.420Z,20.69
2022-09-06T21:38:21.783Z,20.68
2022-09-06T21:40:57.018Z,20.69
2022-09-06T21:43:33.700Z,20.67
2022-09-06T21:53:11.500Z,20.62
2022-09-06T21:55:45.173Z,20.57
2022-09-06T21:58:19.417Z,20.51
2022-09-06T22:00:59.471Z,20.50
2022-09-06T22:03:43.422Z,20.49
2022-09-06T22:06:20.624Z,20.48
2022-09-06T22:19:42.360Z,20.43
2022-09-06T22:22:22.429Z,20.42
2022-09-06T22:24:55.889Z,20.36
2022-09-06T22:27:29.427Z,20.33
2022-09-06T22:30:13.230Z,20.31
2022-09-06T22:32:53.397Z,20.32
2022-09-06T22:46:27.030Z,20.23
2022-09-06T22:49:01.104Z,20.22
2022-09-06T22:51:35.438Z,20.22
2022-09-06T22:54:09.358Z,20.22
2022-09-06T22:56:43.417Z,20.20
2022-09-06T22:59:17.066Z,20.19
2022-09-06T23:01:52.538Z,20.16
2022-09-06T23:15:11.449Z,20.01
2022-09-06T23:17:47.056Z,19.99
2022-09-06T23:20:20.421Z,19.98
2022-09-06T23:22:53.855Z,19.99
2022-09-06T23:25:27.434Z,19.96
2022-09-06T23:28:01.108Z,19.95
2022-09-06T23:40:51.392Z,19.90
2022-09-06T23:43:31.429Z,19.87
2022-09-06T23:46:05.063Z,19.85
2022-09-06T23:48:40.229Z,19.84
2022-09-06T23:51:13.948Z,19.81
